Time;durP1;ratioP1;P1;durP2;ratioP2;P2;SDS_P1;SDS_P2;PMS_P1;PMS_P2;Temp;Humidity;BMP_temperature;BMP_pressure;BME280_temperature;BME280_humidity;BME280_pressure;Samples;Min_cycle;Max_cycle;Signal;HPM_P1;HPM_P2
2022/03/26 00:01:07;;;;;;;;;;;;;;;2.11;76.43;99952.30;1717147;83;20467;-67
2022/03/26 00:03:36;;;;;;;;;;;;;;;2.08;76.42;99944.14;1717353;83;21130;-67
2022/03/26 00:06:13;;;;;;;;;;;;;;;2.05;76.38;99939.23;1717331;83;20444;-67
2022/03/26 00:08:42;;;;;;;;;;;;;;;2.04;76.38;99946.25;1694190;83;20129;-67
2022/03/26 00:11:14;;;;;;;;;;;;;;;2.01;76.38;99939.98;1699617;84;20107;-67
2022/03/26 00:13:47;;;;;;;;;;;;;;;1.98;76.52;99936.70;1693535;84;20098;-67
2022/03/26 00:16:17;;;;;;;;;;;;;;;1.98;76.47;99929.11;1665694;86;20111;-68
2022/03/26 00:18:48;;;;;;;;;;;;;;;1.96;76.52;99932.06;1646521;86;20126;-68
2022/03/26 00:21:35;;;;;;;;;;;;;;;1.94;76.45;99930.67;1712467;84;20430;-66
2022/03/26 00:23:55;;;;;;;;;;;;;;;1.92;76.48;99921.98;1706621;83;20551;-67
2022/03/26 00:26:24;;;;;;;;;;;;;;;1.87;76.44;99918.67;1711692;84;20476;-68
2022/03/26 00:28:59;;;;;;;;;;;;;;;1.85;76.50;99914.05;1712482;83;20574;-68
2022/03/26 00:31:24;;;;;;;;;;;;;;;1.82;76.48;99913.72;1703940;83;20118;-68
2022/03/26 00:33:54;;;;;;;;;;;;;;;1.80;76.48;99913.15;1711789;83;20133;-68
2022/03/26 00:36:26;;;;;;;;;;;;;;;1.78;76.59;99914.75;1665838;85;20144;-69
2022/03/26 00:39:02;;;;;;;;;;;;;;;1.77;76.65;99913.11;1699318;84;20097;-67
2022/03/26 00:41:31;;;;;;;;;;;;;;;1.76;76.73;99911.47;1689509;84;20132;-67
2022/03/26 00:44:02;;;;;;;;;;;;;;;1.74;76.70;99906.84;1712429;83;20073;-68
2022/03/26 00:46:50;;;;;;;;;;;;;;;1.73;76.69;99908.48;1688744;84;20094;-67
2022/03/26 00:49:09;;;;;;;;;;;;;;;1.71;76.62;99907.38;1706161;83;20510;-68
2022/03/26 00:51:35;;;;;;;;;;;;;;;1.68;76.58;99910.58;1711742;83;20437;-68
2022/03/26 00:54:04;;;;;;;;;;;;;;;1.69;76.65;99910.04;1708460;83;22231;-68
2022/03/26 00:56:39;;;;;;;;;;;;;;;1.67;76.57;99908.12;1706248;83;20117;-68
2022/03/26 00:59:08;;;;;;;;;;;;;;;1.67;76.43;99908.94;1689628;84;20145;-67
2022/03/26 01:01:35;;;;;;;;;;;;;;;1.68;76.35;99905.70;1712324;84;20105;-67
2022/03/26 01:04:12;;;;;;;;;;;;;;;1.66;76.26;99901.88;1689406;84;20109;-66
2022/03/26 01:06:38;;;;;;;;;;;;;;;1.64;76.15;99898.08;1712052;83;21186;-66
2022/03/26 01:09:07;;;;;;;;;;;;;;;1.64;76.06;99893.20;1712721;83;20126;-65
2022/03/26 01:11:38;;;;;;;;;;;;;;;1.64;75.96;99898.61;1711295;84;20147;-65
2022/03/26 01:14:10;;;;;;;;;;;;;;;1.63;75.88;99886.14;1712311;84;20548;-65
2022/03/26 01:16:39;;;;;;;;;;;;;;;1.62;75.77;99889.38;1715144;83;20073;-65
2022/03/26 01:19:07;;;;;;;;;;;;;;;1.61;75.63;99887.75;1719392;83;20269;-65
2022/03/26 01:21:37;;;;;;;;;;;;;;;1.61;75.57;99888.28;1722245;83;20097;-65
2022/03/26 01:24:11;;;;;;;;;;;;;;;1.59;75.43;99882.30;1721832;83;20089;-65
2022/03/26 01:26:40;;;;;;;;;;;;;;;1.59;75.34;99878.23;1712782;83;20085;-65
2022/03/26 01:29:17;;;;;;;;;;;;;;;1.58;75.24;99876.59;1722575;83;20085;-66
2022/03/26 01:31:44;;;;;;;;;;;;;;;1.58;75.18;99877.95;1722193;83;20146;-66
2022/03/26 01:34:30;;;;;;;;;;;;;;;1.55;75.13;99876.56;1701414;83;20442;-66
2022/03/26 01:36:52;;;;;;;;;;;;;;;1.56;75.06;99867.38;1716558;83;20193;-66
2022/03/26 01:39:20;;;;;;;;;;;;;;;1.55;75.01;99867.62;1692522;84;20123;-66
2022/03/26 01:41:49;;;;;;;;;;;;;;;1.54;75.00;99865.98;1722648;83;20085;-68
2022/03/26 01:44:18;;;;;;;;;;;;;;;1.53;74.92;99857.05;1721889;83;21152;-68
2022/03/26 01:46:53;;;;;;;;;;;;;;;1.52;74.83;99860.82;1722608;83;20161;-67
2022/03/26 01:49:29;;;;;;;;;;;;;;;1.50;74.71;99853.48;1722579;83;20444;-68
2022/03/26 01:51:57;;;;;;;;;;;;;;;1.50;74.73;99849.43;1701805;83;20085;-67
2022/03/26 01:54:29;;;;;;;;;;;;;;;1.50;74.61;99853.48;1719127;83;20421;-67
2022/03/26 01:56:57;;;;;;;;;;;;;;;1.50;74.45;99848.61;1721875;83;21179;-67
2022/03/26 01:59:27;;;;;;;;;;;;;;;1.51;74.32;99855.66;1722588;83;20872;-69
2022/03/26 02:02:02;;;;;;;;;;;;;;;1.51;74.22;99850.25;1722740;83;20130;-68
2022/03/26 02:04:34;;;;;;;;;;;;;;;1.51;74.08;99843.48;1722170;83;20416;-68
2022/03/26 02:07:08;;;;;;;;;;;;;;;1.50;73.98;99849.96;1701444;83;20424;-66
2022/03/26 02:09:39;;;;;;;;;;;;;;;1.49;73.91;99845.09;1722759;83;21912;-67
2022/03/26 02:12:25;;;;;;;;;;;;;;;1.50;73.82;99844.55;1721987;83;20085;-67
2022/03/26 02:15:00;;;;;;;;;;;;;;;1.50;73.79;99841.84;1720295;83;20122;-66
2022/03/26 02:17:26;;;;;;;;;;;;;;;1.50;73.71;99831.84;1719092;83;20086;-67
2022/03/26 02:19:59;;;;;;;;;;;;;;;1.53;73.57;99834.59;1718135;83;20161;-66
2022/03/26 02:22:38;;;;;;;;;;;;;;;1.53;73.43;99832.70;1714532;83;20425;-67
2022/03/26 02:25:10;;;;;;;;;;;;;;;1.54;73.35;99830.27;1715986;83;20105;-69
2022/03/26 02:27:36;;;;;;;;;;;;;;;1.56;73.13;99821.38;1732507;82;20109;-67
2022/03/26 02:30:11;;;;;;;;;;;;;;;1.58;72.94;99826.00;1723000;82;20103;-67
2022/03/26 02:32:37;;;;;;;;;;;;;;;1.60;72.71;99825.75;1743991;82;20119;-69
2022/03/26 02:35:08;;;;;;;;;;;;;;;1.61;72.58;99821.98;1744051;82;20111;-69
2022/03/26 02:37:35;;;;;;;;;;;;;;;1.60;72.38;99815.75;1744913;82;20095;-69
2022/03/26 02:40:06;;;;;;;;;;;;;;;1.61;72.30;99812.51;1744963;82;20071;-68
2022/03/26 02:42:40;;;;;;;;;;;;;;;1.61;72.15;99816.03;1745101;82;20083;-67
2022/03/26 02:45:08;;;;;;;;;;;;;;;1.63;72.05;99811.72;1722487;82;20123;-67
2022/03/26 02:47:48;;;;;;;;;;;;;;;1.63;71.90;99799.02;1722612;82;20661;-67
2022/03/26 02:50:15;;;;;;;;;;;;;;;1.64;71.77;99803.89;1720364;82;20101;-67
2022/03/26 02:52:48;;;;;;;;;;;;;;;1.65;71.72;99798.22;1743019;82;20093;-68
2022/03/26 02:55:13;;;;;;;;;;;;;;;1.65;71.62;99792.81;1740991;82;20071;-68
2022/03/26 02:57:52;;;;;;;;;;;;;;;1.67;71.58;99796.63;1735958;82;20175;-68
2022/03/26 03:00:21;;;;;;;;;;;;;;;1.69;71.42;99792.31;1715168;83;21172;-68
2022/03/26 03:02:52;;;;;;;;;;;;;;;1.74;71.32;99789.64;1698770;82;20160;-68
2022/03/26 03:05:24;;;;;;;;;;;;;;;1.75;71.09;99796.69;1723578;82;20432;-68
2022/03/26 03:07:54;;;;;;;;;;;;;;;1.78;70.95;99789.42;1742475;82;20083;-67
2022/03/26 03:10:25;;;;;;;;;;;;;;;1.83;70.72;99786.23;1744857;82;20152;-67
2022/03/26 03:13:00;;;;;;;;;;;;;;;1.86;70.55;99786.27;1744886;82;20139;-68
2022/03/26 03:15:32;;;;;;;;;;;;;;;1.87;70.42;99786.02;1718964;82;20468;-68
2022/03/26 03:18:02;;;;;;;;;;;;;;;1.88;70.27;99771.41;1721990;82;20158;-69
2022/03/26 03:20:33;;;;;;;;;;;;;;;1.89;70.11;99776.29;1734385;82;20116;-69
2022/03/26 03:23:03;;;;;;;;;;;;;;;1.90;70.08;99777.39;1741034;82;20162;-69
2022/03/26 03:25:32;;;;;;;;;;;;;;;1.91;70.00;99772.26;1733747;82;21136;-69
2022/03/26 03:28:05;;;;;;;;;;;;;;;1.93;69.96;99759.82;1724465;82;20085;-69
2022/03/26 03:30:34;;;;;;;;;;;;;;;1.93;69.89;99763.88;1738538;81;20093;-68
2022/03/26 03:33:03;;;;;;;;;;;;;;;1.94;69.84;99766.88;1735360;82;20083;-68
2022/03/26 03:35:34;;;;;;;;;;;;;;;1.95;69.86;99768.51;1738472;82;20148;-68
2022/03/26 03:38:07;;;;;;;;;;;;;;;1.92;69.84;99760.36;1728606;82;20927;-69
2022/03/26 03:40:50;;;;;;;;;;;;;;;1.90;69.85;99758.44;1735377;82;20146;-69
2022/03/26 03:43:05;;;;;;;;;;;;;;;1.89;69.82;99753.28;1732762;82;20083;-68
2022/03/26 03:45:40;;;;;;;;;;;;;;;1.86;69.88;99747.02;1727626;82;20121;-67
2022/03/26 03:48:17;;;;;;;;;;;;;;;1.83;69.90;99744.81;1748164;82;20089;-67
2022/03/26 03:50:47;;;;;;;;;;;;;;;1.79;70.09;99745.04;1727486;82;20085;-68
2022/03/26 03:53:20;;;;;;;;;;;;;;;1.76;70.08;99743.66;1742259;82;20121;-68
2022/03/26 03:55:48;;;;;;;;;;;;;;;1.72;70.17;99743.91;1748163;82;20085;-68
2022/03/26 03:58:16;;;;;;;;;;;;;;;1.69;70.19;99745.77;1728773;82;20439;-69
2022/03/26 04:00:44;;;;;;;;;;;;;;;1.68;70.27;99746.02;1748060;81;20101;-68
2022/03/26 04:03:29;;;;;;;;;;;;;;;1.63;70.34;99749.48;1747421;81;21162;-66
2022/03/26 04:05:50;;;;;;;;;;;;;;;1.62;70.59;99740.55;1744927;82;20085;-69
2022/03/26 04:08:23;;;;;;;;;;;;;;;1.61;70.68;99735.38;1747873;82;20097;-68
2022/03/26 04:10:53;;;;;;;;;;;;;;;1.61;70.75;99728.09;1741668;82;20452;-68
2022/03/26 04:13:27;;;;;;;;;;;;;;;1.61;70.81;99717.27;1747945;81;20148;-68
2022/03/26 04:15:53;;;;;;;;;;;;;;;1.63;70.92;99717.01;1741020;82;20166;-69
2022/03/26 04:18:20;;;;;;;;;;;;;;;1.63;70.93;99721.89;1733743;82;20119;-69
2022/03/26 04:20:53;;;;;;;;;;;;;;;1.65;70.94;99717.03;1731824;82;20170;-69
2022/03/26 04:23:21;;;;;;;;;;;;;;;1.68;70.89;99718.42;1731728;83;20142;-68
2022/03/26 04:25:52;;;;;;;;;;;;;;;1.71;71.00;99717.91;1710425;83;20142;-68
2022/03/26 04:28:23;;;;;;;;;;;;;;;1.75;70.98;99723.61;1731766;83;21214;-68
2022/03/26 04:30:57;;;;;;;;;;;;;;;1.78;70.98;99721.75;1730430;82;20108;-69
2022/03/26 04:33:25;;;;;;;;;;;;;;;1.79;70.94;99720.67;1716919;83;20174;-68
2022/03/26 04:35:54;;;;;;;;;;;;;;;1.83;70.97;99723.16;1718766;82;20174;-68
2022/03/26 04:38:27;;;;;;;;;;;;;;;1.84;70.95;99714.78;1710407;82;20142;-68
2022/03/26 04:40:55;;;;;;;;;;;;;;;1.87;70.93;99705.34;1743823;82;20163;-66
2022/03/26 04:43:29;;;;;;;;;;;;;;;1.91;70.88;99699.70;1746461;82;20422;-70
2022/03/26 04:45:56;;;;;;;;;;;;;;;1.95;70.71;99701.64;1746710;82;20395;-68
2022/03/26 04:48:26;;;;;;;;;;;;;;;2.02;70.55;99691.95;1746524;82;20546;-66
2022/03/26 04:51:03;;;;;;;;;;;;;;;2.08;70.48;99693.64;1746488;82;20118;-67
2022/03/26 04:53:37;;;;;;;;;;;;;;;2.17;70.45;99690.75;1746296;82;21935;-67
2022/03/26 04:56:06;;;;;;;;;;;;;;;2.26;70.21;99682.44;1746066;82;20457;-68
2022/03/26 04:58:40;;;;;;;;;;;;;;;2.35;69.75;99684.10;1745395;82;20437;-68
2022/03/26 05:01:11;;;;;;;;;;;;;;;2.45;70.04;99682.02;1746980;82;20083;-69
2022/03/26 05:03:38;;;;;;;;;;;;;;;2.51;69.55;99679.09;1723089;82;20095;-68
2022/03/26 05:06:10;;;;;;;;;;;;;;;2.57;69.06;99678.05;1746248;82;21148;-69
2022/03/26 05:08:41;;;;;;;;;;;;;;;2.63;68.99;99682.43;1747115;82;20110;-68
2022/03/26 05:11:15;;;;;;;;;;;;;;;2.69;68.92;99674.33;1723225;82;20119;-66
2022/03/26 05:13:45;;;;;;;;;;;;;;;2.74;68.55;99674.38;1745719;82;20095;-67
2022/03/26 05:16:17;;;;;;;;;;;;;;;2.81;68.69;99669.00;1745770;82;20087;-66
2022/03/26 05:18:46;;;;;;;;;;;;;;;2.89;68.51;99666.30;1747521;81;21098;-66
2022/03/26 05:21:23;;;;;;;;;;;;;;;2.97;68.35;99662.56;1739693;82;20095;-66
2022/03/26 05:23:48;;;;;;;;;;;;;;;3.07;67.71;99663.69;1744989;81;20110;-67
2022/03/26 05:26:16;;;;;;;;;;;;;;;3.15;67.63;99670.79;1730391;82;20121;-65
2022/03/26 05:29:03;;;;;;;;;;;;;;;3.25;67.31;99668.13;1724333;82;20421;-65
2022/03/26 05:31:23;;;;;;;;;;;;;;;3.36;67.17;99665.45;1700538;83;21719;-66
2022/03/26 05:33:51;;;;;;;;;;;;;;;3.48;66.89;99661.41;1718060;83;20141;-65
2022/03/26 05:36:22;;;;;;;;;;;;;;;3.61;66.00;99662.27;1694575;83;20121;-66
2022/03/26 05:38:50;;;;;;;;;;;;;;;3.72;66.19;99667.72;1718497;83;20616;-66
2022/03/26 05:41:26;;;;;;;;;;;;;;;3.85;66.09;99666.67;1716990;83;20085;-65
2022/03/26 05:43:50;;;;;;;;;;;;;;;4.01;65.81;99665.34;1694657;83;20573;-66
2022/03/26 05:46:24;;;;;;;;;;;;;;;4.17;65.57;99665.61;1718226;83;20121;-66
2022/03/26 05:48:55;;;;;;;;;;;;;;;4.31;64.62;99659.91;1714971;83;20144;-68
2022/03/26 05:51:29;;;;;;;;;;;;;;;4.46;63.90;99657.19;1717087;83;20073;-67
2022/03/26 05:54:04;;;;;;;;;;;;;;;4.58;63.63;99656.91;1718452;83;20421;-67
2022/03/26 05:56:29;;;;;;;;;;;;;;;4.69;63.44;99648.98;1717396;83;21266;-66
2022/03/26 05:59:02;;;;;;;;;;;;;;;4.80;63.05;99639.72;1717978;83;20124;-68
2022/03/26 06:01:36;;;;;;;;;;;;;;;4.90;62.68;99641.59;1718280;83;20101;-69
2022/03/26 06:04:04;;;;;;;;;;;;;;;4.99;62.44;99631.78;1718213;83;20765;-68
2022/03/26 06:06:36;;;;;;;;;;;;;;;5.11;62.35;99630.11;1718251;83;20101;-69
2022/03/26 06:09:06;;;;;;;;;;;;;;;5.23;61.81;99632.76;1718217;83;20243;-68
2022/03/26 06:11:37;;;;;;;;;;;;;;;5.37;62.14;99623.99;1717194;83;20085;-66
2022/03/26 06:16:48;;;;;;;;;;;;;;;5.69;61.13;99620.83;1696247;83;20177;-68
2022/03/26 06:19:20;;;;;;;;;;;;;;;5.85;60.71;99613.61;1716055;83;20098;-67
2022/03/26 06:21:49;;;;;;;;;;;;;;;6.04;60.03;99612.97;1715228;83;21147;-67
2022/03/26 06:24:24;;;;;;;;;;;;;;;6.21;59.36;99609.30;1693422;83;20090;-66
2022/03/26 06:26:55;;;;;;;;;;;;;;;6.39;59.02;99598.20;1712238;83;20094;-67
2022/03/26 06:29:33;;;;;;;;;;;;;;;6.54;58.36;99596.70;1712148;83;20089;-67
2022/03/26 06:32:03;;;;;;;;;;;;;;;6.69;58.52;99587.55;1714670;83;20445;-67
2022/03/26 06:34:32;;;;;;;;;;;;;;;6.88;57.86;99576.16;1715287;83;21261;-66
2022/03/26 06:37:07;;;;;;;;;;;;;;;7.04;57.30;99583.59;1694081;83;20110;-65
2022/03/26 06:39:32;;;;;;;;;;;;;;;7.19;56.70;99574.66;1715050;83;20106;-67
2022/03/26 06:42:02;;;;;;;;;;;;;;;7.36;55.78;99567.34;1714065;83;20101;-68
2022/03/26 06:44:33;;;;;;;;;;;;;;;7.49;54.98;99568.53;1715300;83;20164;-69
2022/03/26 06:47:06;;;;;;;;;;;;;;;7.60;55.64;99572.16;1714382;83;21173;-68
2022/03/26 06:49:38;;;;;;;;;;;;;;;7.76;54.15;99565.92;1694093;83;20113;-68
2022/03/26 06:52:09;;;;;;;;;;;;;;;7.87;54.00;99568.76;1715339;83;20440;-69
2022/03/26 06:54:35;;;;;;;;;;;;;;;7.97;53.60;99569.71;1715167;83;20085;-68
2022/03/26 06:57:06;;;;;;;;;;;;;;;8.07;53.10;99561.34;1715580;83;20446;-69
2022/03/26 06:59:34;;;;;;;;;;;;;;;8.19;52.53;99557.56;1714603;83;21799;-68
2022/03/26 07:02:04;;;;;;;;;;;;;;;8.34;52.46;99555.96;1714285;83;20105;-67
2022/03/26 07:04:35;;;;;;;;;;;;;;;8.51;51.88;99552.66;1715254;83;20450;-68
2022/03/26 07:07:07;;;;;;;;;;;;;;;8.69;51.23;99547.62;1714247;83;20089;-68
2022/03/26 07:09:36;;;;;;;;;;;;;;;8.86;50.68;99543.73;1712394;83;20101;-68
2022/03/26 07:12:10;;;;;;;;;;;;;;;9.07;50.11;99547.44;1715250;83;21098;-69
2022/03/26 07:14:45;;;;;;;;;;;;;;;9.29;49.15;99535.16;1694487;83;20116;-69
2022/03/26 07:17:16;;;;;;;;;;;;;;;9.50;48.91;99535.52;1721490;82;20445;-67
2022/03/26 07:19:48;;;;;;;;;;;;;;;9.70;48.34;99539.72;1715847;82;20102;-69
2022/03/26 07:22:22;;;;;;;;;;;;;;;9.89;47.93;99534.28;1727551;82;20085;-68
2022/03/26 07:24:51;;;;;;;;;;;;;;;10.16;47.49;99534.72;1717325;83;20101;-68
2022/03/26 07:27:21;;;;;;;;;;;;;;;10.55;45.90;99533.98;1717247;83;20440;-68
2022/03/26 07:29:53;;;;;;;;;;;;;;;10.88;44.63;99528.95;1717636;83;32635;-68
2022/03/26 07:32:38;;;;;;;;;;;;;;;11.15;43.89;99520.19;1694743;83;20097;-68
2022/03/26 07:34:59;;;;;;;;;;;;;;;11.41;43.25;99513.37;1712204;82;20447;-70
2022/03/26 07:37:29;;;;;;;;;;;;;;;11.78;42.57;99520.98;1735536;82;21378;-66
2022/03/26 07:40:00;;;;;;;;;;;;;;;12.12;41.31;99521.53;1721599;82;20141;-68
2022/03/26 07:42:36;;;;;;;;;;;;;;;12.37;40.69;99508.81;1704479;82;20374;-69
2022/03/26 07:45:04;;;;;;;;;;;;;;;12.59;40.38;99512.48;1702364;82;20093;-67
2022/03/26 07:47:35;;;;;;;;;;;;;;;12.81;39.67;99499.80;1746381;82;20092;-67
2022/03/26 07:50:05;;;;;;;;;;;;;;;12.94;39.33;99494.62;1745943;82;21220;-68
2022/03/26 07:52:41;;;;;;;;;;;;;;;12.99;39.76;99487.55;1723047;82;20095;-65
2022/03/26 07:55:10;;;;;;;;;;;;;;;13.17;39.16;99489.66;1741514;82;20129;-66
2022/03/26 07:57:39;;;;;;;;;;;;;;;13.34;38.87;99481.83;1744968;82;20085;-64
2022/03/26 08:00:13;;;;;;;;;;;;;;;13.52;38.37;99486.06;1741847;82;20129;-67
2022/03/26 08:02:41;;;;;;;;;;;;;;;13.60;38.26;99487.14;1744900;82;21256;-66
2022/03/26 08:05:13;;;;;;;;;;;;;;;13.66;37.10;99488.55;1744752;82;20436;-66
2022/03/26 08:07:41;;;;;;;;;;;;;;;13.71;37.00;99471.22;1744553;82;20424;-63
2022/03/26 08:10:15;;;;;;;;;;;;;;;13.74;36.56;99462.84;1744904;82;20077;-64
2022/03/26 08:12:47;;;;;;;;;;;;;;;13.70;36.70;99459.95;1744554;82;20096;-66
2022/03/26 08:15:18;;;;;;;;;;;;;;;13.64;36.20;99464.06;1744762;82;20081;-66
2022/03/26 08:17:50;;;;;;;;;;;;;;;13.57;36.71;99462.99;1722787;82;20097;-65
2022/03/26 08:20:20;;;;;;;;;;;;;;;13.60;36.76;99449.34;1744773;82;20407;-66
2022/03/26 08:23:01;;;;;;;;;;;;;;;13.88;37.24;99432.98;1744827;82;20125;-66
2022/03/26 08:27:58;;;;;;;;;;;;;;;14.89;35.29;99423.55;1673796;82;20109;-66
2022/03/26 08:30:27;;;;;;;;;;;;;;;15.28;34.67;99423.91;1723813;82;20081;-66
2022/03/26 08:32:57;;;;;;;;;;;;;;;15.60;34.06;99417.97;1745206;82;20093;-65
2022/03/26 08:35:32;;;;;;;;;;;;;;;15.86;33.07;99408.59;1724447;82;20105;-65
2022/03/26 08:38:05;;;;;;;;;;;;;;;16.00;32.25;99432.52;1742096;82;20177;-66
2022/03/26 08:40:37;;;;;;;;;;;;;;;15.95;31.87;99419.51;1744867;82;21164;-68
2022/03/26 08:43:08;;;;;;;;;;;;;;;15.55;32.24;99399.63;1741415;82;20131;-69
2022/03/26 08:45:40;;;;;;;;;;;;;;;15.14;33.05;99400.21;1737802;82;20111;-68
2022/03/26 08:48:15;;;;;;;;;;;;;;;14.93;33.78;99407.08;1723937;82;20106;-65
2022/03/26 08:50:41;;;;;;;;;;;;;;;14.95;33.28;99402.01;1716691;83;20094;-67
2022/03/26 08:53:13;;;;;;;;;;;;;;;15.06;33.96;99402.53;1717352;83;21173;-69
2022/03/26 08:55:42;;;;;;;;;;;;;;;15.24;33.15;99389.24;1734821;82;20195;-73
2022/03/26 08:58:10;;;;;;;;;;;;;;;15.18;32.83;99369.91;1716701;83;20479;-68
2022/03/26 09:00:41;;;;;;;;;;;;;;;15.21;33.25;99373.35;1715333;83;20122;-68
2022/03/26 09:03:08;;;;;;;;;;;;;;;15.37;32.96;99369.27;1715616;83;20118;-71
2022/03/26 09:05:41;;;;;;;;;;;;;;;15.28;33.68;99376.33;1714270;83;20137;-70
2022/03/26 09:08:13;;;;;;;;;;;;;;;15.07;34.80;99368.20;1732763;82;20472;-70
2022/03/26 09:10:45;;;;;;;;;;;;;;;14.96;35.71;99368.49;1746338;82;20130;-71
2022/03/26 09:13:13;;;;;;;;;;;;;;;15.07;35.89;99358.53;1746667;82;20173;-68
2022/03/26 09:15:46;;;;;;;;;;;;;;;15.20;36.44;99353.19;1722620;82;20145;-68
2022/03/26 09:18:15;;;;;;;;;;;;;;;15.45;36.18;99340.65;1745749;82;21129;-66
2022/03/26 09:20:44;;;;;;;;;;;;;;;15.75;36.23;99340.50;1721110;82;20138;-66
2022/03/26 09:23:15;;;;;;;;;;;;;;;16.05;35.89;99337.31;1720134;82;20125;-66
2022/03/26 09:25:45;;;;;;;;;;;;;;;16.19;35.75;99339.02;1747118;82;20614;-67
2022/03/26 09:28:17;;;;;;;;;;;;;;;16.14;36.00;99331.02;1747177;82;20114;-66
2022/03/26 09:30:50;;;;;;;;;;;;;;;16.20;35.83;99318.48;1747488;81;20682;-67
2022/03/26 09:33:29;;;;;;;;;;;;;;;16.30;35.92;99316.55;1727563;82;20098;-66
2022/03/26 09:36:00;;;;;;;;;;;;;;;16.39;35.79;99321.90;1747317;82;20129;-66
2022/03/26 09:38:36;;;;;;;;;;;;;;;16.47;35.81;99314.78;1727872;82;20118;-65
2022/03/26 09:41:09;;;;;;;;;;;;;;;16.59;35.45;99236.27;1747706;82;20110;-67
2022/03/26 09:43:50;;;;;;;;;;;;;;;16.54;35.30;99300.87;1728148;82;20169;-66
2022/03/26 09:46:23;;;;;;;;;;;;;;;16.35;36.04;99296.08;1717519;83;20073;-67
2022/03/26 09:48:47;;;;;;;;;;;;;;;16.42;36.00;99290.13;1717129;83;20114;-66
2022/03/26 09:51:18;;;;;;;;;;;;;;;16.62;35.85;99277.12;1718251;83;20440;-66
2022/03/26 09:53:45;;;;;;;;;;;;;;;16.80;35.33;99281.08;1717532;83;20452;-67
2022/03/26 09:56:17;;;;;;;;;;;;;;;16.93;35.01;99280.36;1718186;83;21073;-67
2022/03/26 09:58:44;;;;;;;;;;;;;;;16.99;34.29;99261.47;1717146;83;20097;-68
2022/03/26 10:01:22;;;;;;;;;;;;;;;16.81;34.96;99261.09;1705250;83;20089;-67
2022/03/26 10:04:19;;;;;;;;;;;;;;;16.83;35.01;99261.53;1716916;83;20386;-69
2022/03/26 10:07:10;;;;;;;;;;;;;;;16.89;34.69;99245.41;1691604;83;20114;-67
2022/03/26 10:09:36;;;;;;;;;;;;;;;16.82;35.31;99253.00;1714087;83;21339;-66
2022/03/26 10:12:11;;;;;;;;;;;;;;;16.77;34.99;99236.07;1718358;83;20085;-66
2022/03/26 10:14:52;;;;;;;;;;;;;;;16.77;35.48;99232.49;1717412;83;20129;-68
2022/03/26 10:17:24;;;;;;;;;;;;;;;16.94;35.13;99205.72;1698651;83;20086;-66
2022/03/26 10:19:55;;;;;;;;;;;;;;;16.89;35.12;99219.88;1718327;83;20145;-64
2022/03/26 10:22:29;;;;;;;;;;;;;;;16.70;35.36;99206.05;1717864;83;21302;-66
2022/03/26 10:25:21;;;;;;;;;;;;;;;16.50;35.60;99201.84;1715151;83;20492;-66
2022/03/26 10:27:48;;;;;;;;;;;;;;;16.47;35.66;99189.30;1715086;83;20097;-66
2022/03/26 10:32:38;;;;;;;;;;;;;;;16.51;35.66;99186.83;1725574;82;20081;-65
2022/03/26 10:32:51;;;;;;;;;;;;;;;16.58;35.64;99179.25;1741738;82;20092;-67
2022/03/26 10:35:30;;;;;;;;;;;;;;;16.69;35.89;99171.98;1721296;82;20081;-66
2022/03/26 10:38:02;;;;;;;;;;;;;;;16.89;36.05;99168.59;1734580;82;20124;-66
2022/03/26 10:40:32;;;;;;;;;;;;;;;17.22;35.67;99154.73;1736836;82;20083;-66
2022/03/26 10:43:08;;;;;;;;;;;;;;;17.45;35.10;99151.34;1724786;82;20128;-67
2022/03/26 10:45:50;;;;;;;;;;;;;;;17.60;34.54;99125.43;1740905;82;20134;-67
2022/03/26 10:48:24;;;;;;;;;;;;;;;17.68;34.47;99135.50;1738262;82;21103;-65
2022/03/26 10:51:09;;;;;;;;;;;;;;;17.65;33.99;99097.39;1740853;82;20130;-66
2022/03/26 10:53:44;;;;;;;;;;;;;;;17.55;34.55;99124.95;1719575;82;20196;-67
2022/03/26 10:56:13;;;;;;;;;;;;;;;17.60;34.58;99114.92;1729945;82;20118;-66
2022/03/26 10:58:43;;;;;;;;;;;;;;;17.53;34.85;99103.12;1707771;83;20495;-67
2022/03/26 11:01:13;;;;;;;;;;;;;;;17.59;34.63;99108.56;1731759;83;21262;-67
2022/03/26 11:03:42;;;;;;;;;;;;;;;17.56;34.65;99095.44;1731374;83;20424;-68
2022/03/26 11:06:19;;;;;;;;;;;;;;;17.62;34.65;99085.62;1731745;83;20444;-66
2022/03/26 11:08:47;;;;;;;;;;;;;;;17.76;34.79;99080.89;1731518;83;20169;-66
2022/03/26 11:11:20;;;;;;;;;;;;;;;17.87;34.28;99056.86;1726610;83;20458;-65
2022/03/26 11:13:52;;;;;;;;;;;;;;;17.91;34.03;99052.74;1706425;83;20097;-66
2022/03/26 11:16:32;;;;;;;;;;;;;;;18.01;33.97;99041.74;1701748;84;20158;-66
2022/03/26 11:19:28;;;;;;;;;;;;;;;18.15;33.33;99028.03;1744700;82;20115;-65
2022/03/26 11:22:28;;;;;;;;;;;;;;;18.28;32.80;99039.70;1744889;82;20091;-66
2022/03/26 11:25:19;;;;;;;;;;;;;;;18.43;32.91;99031.73;1744211;82;20127;-67
2022/03/26 11:28:08;;;;;;;;;;;;;;;18.54;32.11;99012.36;1746193;81;21156;-64
2022/03/26 11:30:54;;;;;;;;;;;;;;;18.66;31.17;99011.32;1726731;83;20437;-66
2022/03/26 11:33:39;;;;;;;;;;;;;;;18.67;31.54;98997.63;1729224;83;20163;-65
2022/03/26 11:35:57;;;;;;;;;;;;;;;18.79;31.90;98993.97;1722036;83;20108;-65
2022/03/26 11:38:29;;;;;;;;;;;;;;;18.87;31.73;98980.93;1694546;83;20452;-64
2022/03/26 11:41:12;;;;;;;;;;;;;;;18.67;31.58;98978.97;1723102;82;20118;-66
2022/03/26 11:43:48;;;;;;;;;;;;;;;18.29;32.01;98976.00;1722655;82;20107;-64
2022/03/26 11:52:32;;;;;;;;;;;;;;;17.48;33.48;98965.48;1744507;82;20099;-65
2022/03/26 11:55:24;;;;;;;;;;;;;;;17.22;33.75;98951.67;1747069;82;21215;-66
2022/03/26 11:58:13;;;;;;;;;;;;;;;16.93;33.90;98946.27;1722944;82;20462;-67
2022/03/26 12:01:01;;;;;;;;;;;;;;;16.67;33.98;98920.74;1747062;82;20154;-65
2022/03/26 12:03:35;;;;;;;;;;;;;;;16.52;33.84;98910.56;1744198;82;20083;-66
2022/03/26 12:09:00;;;;;;;;;;;;;;;16.72;33.57;98903.00;1744555;82;20450;-65
2022/03/26 12:11:32;;;;;;;;;;;;;;;16.97;33.30;98883.36;1745397;82;20119;-65
2022/03/26 12:14:02;;;;;;;;;;;;;;;17.05;32.16;98879.52;1734229;82;20098;-66
2022/03/26 12:17:02;;;;;;;;;;;;;;;17.04;31.16;98900.10;1736774;82;20122;-66
2022/03/26 12:19:50;;;;;;;;;;;;;;;16.90;30.67;98888.80;1723488;82;20091;-66
2022/03/26 12:22:28;;;;;;;;;;;;;;;16.88;30.59;98874.52;1744181;82;20095;-66
2022/03/26 12:25:08;;;;;;;;;;;;;;;17.02;30.33;98871.95;1746509;82;20083;-66
2022/03/26 12:27:32;;;;;;;;;;;;;;;17.18;30.41;98860.67;1746086;82;20430;-66
2022/03/26 12:30:08;;;;;;;;;;;;;;;17.35;30.08;98863.44;1696909;82;20434;-68
2022/03/26 12:32:49;;;;;;;;;;;;;;;17.39;29.63;98862.90;1744156;82;20442;-66
2022/03/26 12:35:10;;;;;;;;;;;;;;;17.34;29.66;98850.75;1743046;82;21164;-68
2022/03/26 12:37:40;;;;;;;;;;;;;;;17.27;29.68;98865.94;1745430;82;20193;-67
2022/03/26 12:40:17;;;;;;;;;;;;;;;17.25;29.94;98868.30;1746502;82;20115;-66
2022/03/26 12:42:50;;;;;;;;;;;;;;;17.15;28.85;98860.84;1746510;82;20131;-67
2022/03/26 12:45:19;;;;;;;;;;;;;;;16.98;29.70;98878.03;1722832;82;20445;-66
2022/03/26 12:47:50;;;;;;;;;;;;;;;16.84;29.50;98866.73;1747227;82;21206;-64
2022/03/26 12:50:23;;;;;;;;;;;;;;;16.68;29.63;98863.34;1746440;82;20099;-64
2022/03/26 12:52:54;;;;;;;;;;;;;;;16.49;30.16;98868.36;1746949;82;20095;-64
2022/03/26 12:55:29;;;;;;;;;;;;;;;16.31;30.61;98880.53;1746007;82;20071;-66
2022/03/26 13:00:43;;;;;;;;;;;;;;;15.95;30.83;98869.44;1727512;82;21189;-64
2022/03/26 13:03:13;;;;;;;;;;;;;;;15.79;31.14;98856.28;1746813;82;20135;-64
2022/03/26 13:05:48;;;;;;;;;;;;;;;15.72;31.23;98849.23;1744394;82;20119;-65
2022/03/26 13:08:15;;;;;;;;;;;;;;;15.68;31.37;98827.61;1723018;82;20095;-65
2022/03/26 13:10:46;;;;;;;;;;;;;;;15.65;31.78;98860.95;1746442;82;20442;-65
2022/03/26 13:13:15;;;;;;;;;;;;;;;15.63;31.90;98843.92;1723313;82;20517;-66
2022/03/26 13:16:02;;;;;;;;;;;;;;;15.63;32.12;98841.73;1731461;82;20157;-70
2022/03/26 13:18:41;;;;;;;;;;;;;;;15.68;32.22;98838.09;1732739;82;20136;-67
2022/03/26 13:21:12;;;;;;;;;;;;;;;15.72;31.96;98838.16;1722177;82;20442;-66
2022/03/26 13:23:57;;;;;;;;;;;;;;;15.72;31.77;98853.38;1742134;82;20194;-68
2022/03/26 13:26:49;;;;;;;;;;;;;;;15.65;31.78;98831.91;1719800;82;21163;-69
2022/03/26 13:29:27;;;;;;;;;;;;;;;15.61;32.02;98817.79;1740271;82;20406;-69
2022/03/26 13:32:06;;;;;;;;;;;;;;;15.56;32.08;98811.97;1726724;82;20178;-69
2022/03/26 13:34:38;;;;;;;;;;;;;;;15.47;32.31;98836.30;1738084;82;20114;-68
2022/03/26 13:37:23;;;;;;;;;;;;;;;15.42;32.70;98814.46;1719958;82;20118;-68